Terminal Aerodrome Forecast
Issued by NWS

Current Version | Previous Version | Graphics & Text | Print | Product List | Glossary On
Versions: 1 2 3 4 5 6 7 8 9 10 11 12 13 14 15 16 17 18 19 20 21 22 23 24 25 26 27 28 29 30 31 32 33 34 35
000
FTUS41 KRNK 270529
TAFLWB
TAF
KLWB 270529Z 2706/2806 00000KT P6SM SCT040 BKN140
      TEMPO 2709/2712 2SM BR SCT003
     FM271500 VRB03KT P6SM BKN030
     FM271800 26005KT P6SM VCTS BKN035CB
     FM280200 00000KT 2SM BR SCT005 SCT035=

USA.gov is the U.S. government's official web portal to all federal, state and local government web resources and services.